This is the latest recevied weather packets stored in our database for station/object N3HBJ. If no packets are shown the sender has not sent any weather packets the latest 10 day(s).
| Time | Temp. | Humidity | Pressure | Rain* | Wind** | Luminosity | Snow |
|---|---|---|---|---|---|---|---|
| 1777933967 | 21.67° C | 42% | 1007.1 hPa | 0 mm | - | 127 W/m² | - |
| 1777933225 | 21.67° C | 42% | 1007.1 hPa | 0 mm | - | 211 W/m² | - |
| 1777932174 | 21.67° C | 41% | 1007.1 hPa | 0 mm | - | 313 W/m² | - |
| 1777930527 | 21.67° C | 40% | 1007 hPa | 0 mm | - | 77 W/m² | - |
| 1777930226 | 22.22° C | 38% | 1007.1 hPa | 0 mm | - | 364 W/m² | - |
| 1777929925 | 22.22° C | 38% | 1007.1 hPa | 0 mm | - | 404 W/m² | - |
| 1777927617 | 22.78° C | 37% | 1007.2 hPa | 0 mm | - | 169 W/m² | - |
| 1777926722 | 22.78° C | 36% | 1007.3 hPa | 0 mm | - | 649 W/m² | - |
| 1777926422 | 22.78° C | 37% | 1007.4 hPa | 0 mm | - | 654 W/m² | - |
| 1777922078 | 22.22° C | 35% | 1008.2 hPa | 0 mm | - | 784 W/m² | - |
| 1777921773 | 22.22° C | 36% | 1008.1 hPa | 0 mm | - | 821 W/m² | - |
| 1777921176 | 21.67° C | 35% | 1008.1 hPa | 0 mm | - | 803 W/m² | - |
| 1777919508 | 21.67° C | 34% | 1008.7 hPa | 0 mm | - | 849 W/m² | - |
| 1777918771 | 21.67° C | 35% | 1008.8 hPa | 0 mm | - | 853 W/m² | - |
| 1777918471 | 21.11° C | 36% | 1008.8 hPa | 0 mm | - | 904 W/m² | - |
| 1777918168 | 21.11° C | 36% | 1009 hPa | 0 mm | - | 904 W/m² | - |
| 1777917272 | 21.11° C | 36% | 1009 hPa | 0 mm | - | 926 W/m² | - |
| 1777916365 | 21.11° C | 39% | 1009.1 hPa | 0 mm | - | 928 W/m² | - |
| 1777915163 | 20.56° C | 42% | 1009.4 hPa | 0 mm | - | 912 W/m² | - |
| 1777913051 | 19.44° C | 43% | 1010.1 hPa | 0 mm | - | 888 W/m² | - |
| 1777911552 | 18.33° C | 44% | 1010.3 hPa | 0 mm | - | 427 W/m² | - |
| 1777909754 | 17.78° C | 44% | 1010.6 hPa | 0 mm | - | 835 W/m² | - |
| 1777908852 | 17.78° C | 43% | 1010.7 hPa | 0 mm | - | 823 W/m² | - |
| 1777905840 | 16.11° C | 46% | 1011.2 hPa | 0 mm | - | 738 W/m² | - |
| 1777904022 | 15° C | 47% | 1011.4 hPa | 0 mm | - | 663 W/m² | - |
* Rain latest hour (hover to see other rain measurements)
** Current wind speed in m/s (hover to see current wind gust speed)